Latest Weather Observations for Biloela

IDQ60801

Issued at 11:32 am EST Friday 27 March 2015 (issued every 30 minutes, with the page automatically refreshed every 10 minutes)

About weather observations | Map of weather stations | Latest weather observations for QLD | Other Formats
Station Details ID: 039089 Name: THANGOOL AIRPORT Lat: -24.49 Lon: 150.57 Height: 193.1 m
Data from the previous 72 hours. | See also: Recent months at Biloela
Date/Time
EST
Temp
°C
App
Temp
°C
Dew
Point
Rel
Hum
%
Delta-T
°C
Wind Press
QNH
hPa
Press
MSL
hPa
Rain
since 9 am
mm
Dir
 
Spd
km/h
Gust
km/h
Spd
kts
Gust
kts
27/11:30am 29.4 31.1 19.4 55 6.5 NNW 9 15 5 8 1018.9 - 0.0
27/11:00am 29.2 31.0 19.5 56 6.4 N 9 13 5 7 1019.5 - 0.0
27/10:30am 28.1 30.4 19.9 61 5.4 N 7 11 4 6 1020.0 - 0.0
27/10:00am 27.3 29.9 20.1 64 4.7 W 6 11 3 6 1020.2 - 0.0
27/09:30am 27.4 29.5 21.0 68 4.3 NW 11 17 6 9 1020.3 - 0.0
27/08:30am 25.1 28.0 20.6 76 3.0 NNW 6 9 3 5 1020.4 - 0.0
27/08:00am 24.8 27.8 20.9 79 2.6 NW 6 9 3 5 1020.1 - 0.0
27/07:30am 23.4 26.4 20.0 81 2.2 ESE 4 6 2 3 1019.9 - 0.0
27/07:00am 22.7 25.9 19.7 83 1.9 NE 2 7 1 4 1019.5 - 0.0
27/06:30am 21.9 25.4 19.5 86 1.5 CALM 0 0 0 0 1019.4 - 0.0
27/06:00am 21.4 24.5 18.6 84 1.8 CALM 0 0 0 0 1019.2 1018.2 0.0
27/05:30am 21.3 24.4 18.7 85 1.6 CALM 0 0 0 0 1018.8 - 0.0
27/05:00am 21.5 24.7 18.9 85 1.7 CALM 0 0 0 0 1018.5 - 0.0
27/04:30am 21.1 24.1 18.5 85 1.6 CALM 0 0 0 0 1018.2 - 0.0
27/04:00am 21.8 25.0 18.8 83 1.9 CALM 0 0 0 0 1017.9 - 0.0
27/03:30am 21.6 24.5 18.2 81 2.1 CALM 0 6 0 3 1017.7 - 0.0
27/03:00am 22.6 25.6 18.4 77 2.7 CALM 0 0 0 0 1017.9 1016.9 0.0
27/02:30am 22.7 25.6 18.3 76 2.8 CALM 0 0 0 0 1018.1 - 0.0
27/02:00am 22.7 25.7 18.5 77 2.7 CALM 0 0 0 0 1018.1 - 0.0
27/01:30am 22.4 24.2 18.4 78 2.5 W 6 7 3 4 1018.1 - 0.0
27/01:00am 22.7 25.6 18.3 76 2.8 CALM 0 0 0 0 1018.3 - 0.0
27/12:30am 23.0 25.9 18.3 75 3.0 CALM 0 0 0 0 1018.5 - 0.0
27/12:00am 22.6 25.2 17.5 73 3.2 CALM 0 0 0 0 1018.6 1017.6 0.0
 
Date/Time
EST
Temp
°C
App
Temp
°C
Dew
Point
Rel
Hum
%
Delta-T
°C
Wind Press
QNH
hPa
Press
MSL
hPa
Rain
since 9 am
mm
Dir
 
Spd
km/h
Gust
km/h
Spd
kts
Gust
kts
26/11:30pm 23.4 26.1 17.8 71 3.5 CALM 0 0 0 0 1018.8 - 0.0
26/11:00pm 23.7 26.4 17.7 69 3.8 CALM 0 7 0 4 1018.7 - 0.0
26/10:30pm 23.6 25.2 16.9 66 4.1 NNE 4 7 2 4 1018.7 - 0.0
26/10:00pm 25.1 26.7 17.0 60 5.1 N 4 9 2 5 1018.9 - 0.0
26/09:30pm 25.4 26.5 16.5 58 5.5 NNE 6 9 3 5 1018.9 - 0.0
26/09:00pm 25.9 26.7 15.9 54 6.1 ENE 6 9 3 5 1018.9 1017.9 0.0
26/08:30pm 27.3 27.7 16.3 51 6.8 NNW 9 17 5 9 1018.6 - 0.0
26/08:00pm 27.2 26.4 16.2 51 6.8 NE 15 20 8 11 1017.7 - 0.0
26/07:30pm 28.0 27.5 16.9 51 7.0 NNE 15 20 8 11 1017.3 - 0.0
26/07:00pm 28.3 29.1 18.1 54 6.5 NNE 11 15 6 8 1016.7 - 0.0
26/06:30pm 29.2 29.9 18.0 51 7.2 NNE 11 15 6 8 1016.4 - 0.0
26/06:00pm 29.9 30.4 18.3 49 7.5 NNE 13 17 7 9 1015.8 1014.8 0.0
26/05:30pm 31.1 31.5 18.1 46 8.4 NNE 13 20 7 11 1015.4 - 0.0
26/05:00pm 32.0 32.4 18.2 43 9.0 NNE 13 17 7 9 1015.1 - 0.0
26/04:30pm 32.7 32.9 17.7 40 9.7 NNW 13 20 7 11 1014.9 - 0.0
26/04:00pm 32.8 33.1 17.8 40 9.7 N 13 19 7 10 1014.9 - 0.0
26/03:30pm 33.4 35.2 18.7 41 9.7 W 7 11 4 6 1015.0 - 0.0
26/03:00pm 32.6 33.3 18.0 41 9.5 NNE 11 17 6 9 1015.1 1014.1 0.0
26/02:30pm 32.4 34.2 19.6 46 8.5 N 9 20 5 11 1015.5 - 0.0
26/02:00pm 33.1 35.1 19.9 45 8.8 NNW 9 17 5 9 1015.7 - 0.0
26/01:30pm 31.9 33.5 19.2 47 8.4 W 9 20 5 11 1016.2 - 0.0
26/01:00pm 32.0 34.0 19.9 48 8.0 NNW 9 17 5 9 1016.8 - 0.0
26/12:30pm 31.7 33.9 20.3 50 7.6 NNW 9 17 5 9 1017.4 - 0.0
26/12:00pm 30.3 32.4 20.2 54 6.7 NNW 9 17 5 9 1018.1 1017.1 0.0
26/11:30am 30.0 32.4 20.8 57 6.2 NW 9 15 5 8 1018.6 - 0.0
26/11:00am 29.2 31.9 21.4 63 5.3 NNW 9 15 5 8 1019.0 - 0.0
26/10:30am 28.7 31.6 21.0 63 5.2 NNE 7 11 4 6 1019.4 - 0.0
26/10:00am 27.6 30.2 21.2 68 4.3 WNW 9 13 5 7 1019.5 - 0.0
26/09:30am 26.5 28.9 20.8 71 3.8 W 9 13 5 7 1019.7 - 0.0
26/09:00am 25.9 28.0 20.9 74 3.3 NNW 11 15 6 8 1019.5 1018.5 0.0
26/08:30am 25.3 28.9 20.5 75 3.2 WSW 2 7 1 4 1019.3 - 0.0
26/08:00am 24.4 28.2 20.1 77 2.8 CALM 0 0 0 0 1019.1 - 0.0
26/07:30am 22.9 25.8 19.9 83 1.9 S 4 7 2 4 1018.9 - 0.0
26/07:00am 21.2 24.0 19.7 91 1.0 SE 4 7 2 4 1018.4 - 0.0
26/06:30am 19.6 21.4 18.4 93 0.8 E 6 7 3 4 1018.0 - 0.0
26/06:00am 19.3 21.0 18.1 93 0.7 ENE 6 7 3 4 1017.5 1016.6 0.0
26/05:30am 19.4 22.3 18.2 93 0.7 CALM 0 0 0 0 1017.2 - 0.0
26/05:00am 19.4 22.2 17.9 91 0.9 CALM 0 0 0 0 1016.9 - 0.0
26/04:30am 19.6 22.5 18.1 91 0.9 CALM 0 0 0 0 1016.5 - 0.0
26/04:00am 20.0 22.6 18.5 91 0.9 W 2 6 1 3 1016.3 - 0.0
26/03:30am 20.0 23.0 18.5 91 0.9 CALM 0 0 0 0 1016.1 - 0.0
26/03:00am 20.0 22.8 18.0 88 1.2 CALM 0 0 0 0 1016.1 1015.1 0.0
26/02:30am 20.4 23.3 18.2 87 1.4 CALM 0 0 0 0 1016.1 - 0.0
26/02:00am 20.9 23.9 18.5 86 1.5 CALM 0 0 0 0 1016.2 - 0.0
26/01:30am 21.8 25.2 19.4 86 1.5 CALM 0 0 0 0 1016.4 - 0.0
26/01:00am 21.6 24.9 19.0 85 1.7 CALM 0 0 0 0 1016.5 - 0.0
26/12:30am 21.8 23.9 19.0 84 1.8 NE 6 7 3 4 1016.6 - 0.0
26/12:00am 22.4 25.8 19.4 83 1.9 CALM 0 0 0 0 1016.7 1015.8 0.0
 
Date/Time
EST
Temp
°C
App
Temp
°C
Dew
Point
Rel
Hum
%
Delta-T
°C
Wind Press
QNH
hPa
Press
MSL
hPa
Rain
since 9 am
mm
Dir
 
Spd
km/h
Gust
km/h
Spd
kts
Gust
kts
25/11:30pm 22.8 26.1 19.2 80 2.3 CALM 0 0 0 0 1016.7 - 0.0
25/11:00pm 24.0 27.9 20.3 80 2.4 CALM 0 0 0 0 1016.6 - 0.0
25/10:30pm 24.4 26.7 19.5 74 3.2 NNE 6 7 3 4 1016.4 - 0.0
25/10:00pm 25.5 28.1 20.1 72 3.5 WNW 6 7 3 4 1016.7 - 0.0
25/09:30pm 26.3 29.5 20.4 70 3.9 NNW 4 9 2 5 1016.5 - 0.0
25/09:00pm 26.7 28.9 20.5 69 4.1 N 9 15 5 8 1016.4 1015.5 0.0
25/08:30pm 27.1 27.5 20.9 69 4.1 NE 20 24 11 13 1015.9 - 0.0
25/08:00pm 27.5 28.5 21.1 68 4.3 NE 17 24 9 13 1015.5 - 0.0
25/07:30pm 27.8 29.1 20.9 66 4.6 NE 15 19 8 10 1015.2 - 0.0
25/07:00pm 27.4 29.5 18.9 59 5.5 NNE 6 11 3 6 1015.1 - 0.0
25/06:30pm 28.9 31.1 19.2 55 6.3 N 6 9 3 5 1014.6 - 0.0
25/06:00pm 30.8 32.8 19.2 50 7.6 WNW 7 9 4 5 1014.3 1013.3 0.0
25/05:30pm 32.2 33.8 19.1 45 8.6 NW 9 13 5 7 1014.0 - 0.0
25/05:00pm 33.0 35.2 18.4 42 9.5 NW 4 9 2 5 1013.7 - 0.0
25/04:30pm 33.4 35.6 19.1 42 9.4 N 6 11 3 6 1013.5 - 0.0
25/04:00pm 32.5 33.5 18.7 44 9.0 NE 11 17 6 9 1013.6 - 0.0
25/03:30pm 32.9 34.1 19.0 43 9.2 ENE 11 17 6 9 1013.7 - 0.0
25/03:00pm 32.9 34.2 19.4 45 8.9 N 11 15 6 8 1013.8 1012.8 0.0
25/02:30pm 32.4 34.1 19.3 46 8.7 W 9 19 5 10 1014.1 - 0.0
25/02:00pm 32.2 32.9 18.8 45 8.8 NNW 13 22 7 12 1014.5 - 0.0
25/01:30pm 31.8 32.6 19.1 47 8.4 NNW 13 24 7 13 1014.8 - 0.0
25/01:00pm 31.7 32.9 20.0 50 7.8 NNW 13 20 7 11 1015.1 - 0.0
25/12:30pm 30.7 31.6 18.4 47 8.0 NNW 11 20 6 11 1015.6 - 0.0
25/12:00pm 30.4 31.2 19.1 50 7.4 NNW 13 20 7 11 1016.2 1015.2 0.0
25/11:30am 30.9 31.2 19.6 51 7.5 NW 17 24 9 13 1016.8 - 0.0
25/11:00am 29.3 30.1 19.9 57 6.2 WNW 15 26 8 14 1017.2 - 0.0
25/10:30am 29.1 30.3 20.0 58 6.0 NW 13 22 7 12 1017.4 - 0.0
25/10:00am 28.2 29.2 20.2 62 5.3 NNW 15 22 8 12 1017.6 - 0.0
25/09:30am 27.3 27.7 20.6 67 4.4 NW 19 24 10 13 1017.4 - 0.0
25/09:00am 26.6 27.6 20.2 68 4.2 N 15 20 8 11 1017.5 1016.6 0.0
25/08:30am 25.2 27.6 20.9 77 2.8 NW 9 13 5 7 1017.5 - 0.0
25/08:00am 23.5 26.3 20.4 83 2.0 W 6 9 3 5 1017.5 - 0.0
25/07:30am 22.5 25.2 20.2 87 1.5 NNW 6 7 3 4 1017.0 - 0.0
25/07:00am 21.1 23.6 19.0 88 1.3 E 4 6 2 3 1016.6 - 0.0
25/06:30am 19.3 20.8 18.1 93 0.7 E 7 7 4 4 1016.4 - 0.0
25/06:00am 18.5 21.0 17.3 93 0.7 CALM 0 0 0 0 1015.9 1014.9 0.0
25/05:30am 18.3 20.7 17.1 93 0.7 CALM 0 0 0 0 1015.6 - 0.0
25/05:00am 18.1 20.4 16.8 92 0.8 CALM 0 0 0 0 1015.2 - 0.0
25/04:30am 18.2 20.5 16.7 91 0.9 CALM 0 0 0 0 1015.0 - 0.0
25/04:00am 18.7 21.3 17.5 93 0.7 CALM 0 0 0 0 1014.6 - 0.0
25/03:30am 18.4 20.6 16.6 89 1.1 CALM 0 0 0 0 1014.4 - 0.0
25/03:00am 18.9 21.4 17.2 90 1.0 CALM 0 0 0 0 1014.2 1013.2 0.0
25/02:30am 19.4 22.2 17.9 91 0.9 CALM 0 0 0 0 1014.1 - 0.0
25/02:00am 19.0 21.4 17.0 88 1.2 CALM 0 4 0 2 1014.4 - 0.0
25/01:30am 19.3 21.7 16.9 86 1.5 CALM 0 0 0 0 1014.5 - 0.0
25/01:00am 19.7 22.2 17.3 86 1.5 CALM 0 0 0 0 1014.9 - 0.0
25/12:30am 20.0 22.6 17.6 86 1.5 CALM 0 0 0 0 1015.2 - 0.0
25/12:00am 20.4 22.9 17.2 82 2.0 CALM 0 0 0 0 1015.2 1014.2 0.0
 
Date/Time
EST
Temp
°C
App
Temp
°C
Dew
Point
Rel
Hum
%
Delta-T
°C
Wind Press
QNH
hPa
Press
MSL
hPa
Rain
since 9 am
mm
Dir
 
Spd
km/h
Gust
km/h
Spd
kts
Gust
kts
24/11:30pm 21.3 23.2 17.7 80 2.2 W 4 6 2 3 1015.6 - 0.0
24/11:00pm 22.2 23.7 17.6 75 2.9 W 6 7 3 4 1015.7 - 0.0
24/10:30pm 23.7 25.7 17.9 70 3.7 WNW 4 9 2 5 1015.7 - 0.0
24/10:00pm 24.9 26.4 18.8 69 3.9 SW 9 13 5 7 1015.8 - 0.0
24/09:30pm 24.8 24.7 18.7 69 3.9 NE 17 20 9 11 1015.3 - 0.0
24/09:00pm 24.7 25.3 18.6 69 3.9 ENE 13 17 7 9 1015.3 1014.3 0.0
24/08:30pm 25.5 26.1 18.7 66 4.4 NE 13 15 7 8 1015.1 - 0.0
24/08:00pm 26.3 26.9 18.7 63 4.9 NE 13 19 7 10 1015.1 - 0.0
24/07:30pm 27.1 28.2 18.9 61 5.3 NNE 11 15 6 8 1014.7 - 0.0
24/07:00pm 27.8 28.6 19.1 59 5.7 NNE 13 20 7 11 1014.4 - 0.0
24/06:30pm 27.9 29.6 18.0 55 6.3 NNW 6 7 3 4 1014.1 - 0.0
24/06:00pm 29.1 30.0 17.6 50 7.3 WNW 9 13 5 7 1013.8 1012.8 0.0
24/05:30pm 30.1 30.2 17.5 46 8.1 WNW 13 17 7 9 1013.4 - 0.0
24/05:00pm 30.1 31.5 17.9 48 7.8 NW 7 9 4 5 1013.2 - 0.0
24/04:30pm 30.0 30.7 17.1 46 8.2 NW 9 13 5 7 1013.2 - 0.0
24/04:00pm 31.4 31.7 16.9 41 9.2 WNW 11 17 6 9 1013.2 - 0.0
24/03:30pm 32.1 32.3 16.8 40 9.8 WNW 11 19 6 10 1013.1 - 0.0
24/03:00pm 31.9 32.1 15.8 38 10.1 W 9 17 5 9 1013.2 1012.2 0.0
24/02:30pm 32.3 32.7 16.2 38 10.2 NNW 9 20 5 11 1013.3 - 0.0
24/02:00pm 30.7 30.5 16.7 43 8.9 N 13 19 7 10 1013.8 - 0.0
24/01:30pm 31.2 32.5 18.5 46 8.3 NW 9 15 5 8 1014.3 - 0.0
24/01:00pm 29.5 30.6 18.0 50 7.4 NNW 9 15 5 8 1014.8 - 0.0
24/12:30pm 30.7 32.4 19.4 51 7.4 NE 9 20 5 11 1015.2 - 0.0
24/12:00pm 28.6 29.1 17.5 51 7.1 NW 11 19 6 10 1015.6 1014.6 0.0

Other Formats:

Comma delimited format used in spreadsheet applications
http://www.bom.gov.au/fwo/IDQ60801/IDQ60801.94376.axf

JavaScript Object Notation format (JSON) in row-major order
http://www.bom.gov.au/fwo/IDQ60801/IDQ60801.94376.json